sensor_id;sensor_type;location;lat;lon;timestamp;P1;durP1;ratioP1;P2;durP2;ratioP2
71763;SDS011;59602;52.142;5.408;2022-12-07T00:01:19;7.20;;;1.95;;
71763;SDS011;59602;52.142;5.408;2022-12-07T00:03:48;5.55;;;1.52;;
71763;SDS011;59602;52.142;5.408;2022-12-07T00:06:16;3.47;;;1.35;;
71763;SDS011;59602;52.142;5.408;2022-12-07T00:08:44;3.57;;;1.20;;
71763;SDS011;59602;52.142;5.408;2022-12-07T00:11:13;6.22;;;1.60;;
71763;SDS011;59602;52.142;5.408;2022-12-07T00:13:42;2.95;;;1.13;;
71763;SDS011;59602;52.142;5.408;2022-12-07T00:16:10;6.63;;;1.38;;
71763;SDS011;59602;52.142;5.408;2022-12-07T00:18:40;4.93;;;1.48;;
71763;SDS011;59602;52.142;5.408;2022-12-07T00:21:09;4.23;;;1.07;;
71763;SDS011;59602;52.142;5.408;2022-12-07T00:23:41;5.05;;;1.30;;
71763;SDS011;59602;52.142;5.408;2022-12-07T00:26:11;3.67;;;0.93;;
71763;SDS011;59602;52.142;5.408;2022-12-07T00:28:46;6.30;;;1.23;;
71763;SDS011;59602;52.142;5.408;2022-12-07T00:31:15;3.58;;;0.93;;
71763;SDS011;59602;52.142;5.408;2022-12-07T00:33:43;3.17;;;0.73;;
71763;SDS011;59602;52.142;5.408;2022-12-07T00:36:14;5.90;;;1.23;;
71763;SDS011;59602;52.142;5.408;2022-12-07T00:38:48;4.35;;;1.10;;
71763;SDS011;59602;52.142;5.408;2022-12-07T00:41:16;4.68;;;1.00;;
71763;SDS011;59602;52.142;5.408;2022-12-07T00:43:44;5.35;;;1.05;;
71763;SDS011;59602;52.142;5.408;2022-12-07T00:46:12;4.00;;;0.77;;
71763;SDS011;59602;52.142;5.408;2022-12-07T00:48:40;4.75;;;0.90;;
71763;SDS011;59602;52.142;5.408;2022-12-07T00:51:07;4.18;;;0.90;;
71763;SDS011;59602;52.142;5.408;2022-12-07T00:53:36;6.70;;;0.93;;
71763;SDS011;59602;52.142;5.408;2022-12-07T00:56:08;4.90;;;0.90;;
71763;SDS011;59602;52.142;5.408;2022-12-07T00:58:38;4.17;;;0.83;;
71763;SDS011;59602;52.142;5.408;2022-12-07T01:01:05;12.43;;;1.33;;
71763;SDS011;59602;52.142;5.408;2022-12-07T01:03:33;5.07;;;0.77;;
71763;SDS011;59602;52.142;5.408;2022-12-07T01:06:00;5.25;;;0.65;;
71763;SDS011;59602;52.142;5.408;2022-12-07T01:08:27;3.58;;;0.70;;
71763;SDS011;59602;52.142;5.408;2022-12-07T01:10:59;10.13;;;0.80;;
71763;SDS011;59602;52.142;5.408;2022-12-07T01:13:27;3.08;;;0.75;;
71763;SDS011;59602;52.142;5.408;2022-12-07T01:15:56;3.97;;;0.75;;
71763;SDS011;59602;52.142;5.408;2022-12-07T01:18:26;5.03;;;0.80;;
71763;SDS011;59602;52.142;5.408;2022-12-07T01:20:59;2.83;;;0.57;;
71763;SDS011;59602;52.142;5.408;2022-12-07T01:23:26;4.93;;;1.00;;
71763;SDS011;59602;52.142;5.408;2022-12-07T01:25:54;3.85;;;0.50;;
71763;SDS011;59602;52.142;5.408;2022-12-07T01:28:29;6.55;;;0.93;;
71763;SDS011;59602;52.142;5.408;2022-12-07T01:31:01;3.35;;;0.60;;
71763;SDS011;59602;52.142;5.408;2022-12-07T01:33:32;3.45;;;0.68;;
71763;SDS011;59602;52.142;5.408;2022-12-07T01:36:01;6.97;;;0.80;;
71763;SDS011;59602;52.142;5.408;2022-12-07T01:38:29;3.70;;;0.55;;
71763;SDS011;59602;52.142;5.408;2022-12-07T01:40:57;3.63;;;0.80;;
71763;SDS011;59602;52.142;5.408;2022-12-07T01:43:25;3.15;;;0.40;;
71763;SDS011;59602;52.142;5.408;2022-12-07T01:45:54;6.32;;;0.65;;
71763;SDS011;59602;52.142;5.408;2022-12-07T01:48:23;4.60;;;0.57;;
71763;SDS011;59602;52.142;5.408;2022-12-07T01:50:53;5.40;;;0.50;;
71763;SDS011;59602;52.142;5.408;2022-12-07T01:53:24;3.13;;;0.40;;
71763;SDS011;59602;52.142;5.408;2022-12-07T01:55:53;2.72;;;0.30;;
71763;SDS011;59602;52.142;5.408;2022-12-07T01:58:22;6.20;;;0.40;;
71763;SDS011;59602;52.142;5.408;2022-12-07T02:00:50;3.87;;;0.63;;
71763;SDS011;59602;52.142;5.408;2022-12-07T02:03:19;4.80;;;0.68;;
71763;SDS011;59602;52.142;5.408;2022-12-07T02:05:50;2.22;;;0.38;;
71763;SDS011;59602;52.142;5.408;2022-12-07T02:08:17;5.97;;;0.43;;
71763;SDS011;59602;52.142;5.408;2022-12-07T02:10:45;5.03;;;0.45;;
71763;SDS011;59602;52.142;5.408;2022-12-07T02:13:15;4.17;;;0.50;;
71763;SDS011;59602;52.142;5.408;2022-12-07T02:15:59;3.55;;;0.52;;
71763;SDS011;59602;52.142;5.408;2022-12-07T02:18:38;4.90;;;0.70;;
71763;SDS011;59602;52.142;5.408;2022-12-07T02:27:07;4.07;;;0.40;;
71763;SDS011;59602;52.142;5.408;2022-12-07T02:29:49;4.50;;;1.13;;
71763;SDS011;59602;52.142;5.408;2022-12-07T02:35:05;4.10;;;0.32;;
71763;SDS011;59602;52.142;5.408;2022-12-07T02:37:41;1.60;;;0.28;;
71763;SDS011;59602;52.142;5.408;2022-12-07T02:42:55;3.10;;;0.30;;
71763;SDS011;59602;52.142;5.408;2022-12-07T02:45:27;3.72;;;0.60;;
71763;SDS011;59602;52.142;5.408;2022-12-07T02:47:57;3.15;;;0.30;;
71763;SDS011;59602;52.142;5.408;2022-12-07T02:50:26;4.13;;;0.40;;
71763;SDS011;59602;52.142;5.408;2022-12-07T02:52:53;2.40;;;0.30;;
71763;SDS011;59602;52.142;5.408;2022-12-07T02:55:25;2.00;;;0.30;;
71763;SDS011;59602;52.142;5.408;2022-12-07T02:58:06;2.42;;;0.30;;
71763;SDS011;59602;52.142;5.408;2022-12-07T03:01:03;2.38;;;0.30;;
71763;SDS011;59602;52.142;5.408;2022-12-07T03:03:40;3.47;;;0.45;;
71763;SDS011;59602;52.142;5.408;2022-12-07T03:06:16;5.77;;;0.40;;
71763;SDS011;59602;52.142;5.408;2022-12-07T03:09:13;4.05;;;0.38;;
71763;SDS011;59602;52.142;5.408;2022-12-07T03:11:47;4.28;;;0.52;;
71763;SDS011;59602;52.142;5.408;2022-12-07T03:16:53;4.38;;;0.43;;
71763;SDS011;59602;52.142;5.408;2022-12-07T03:19:32;2.13;;;0.20;;
71763;SDS011;59602;52.142;5.408;2022-12-07T03:22:03;3.50;;;0.30;;
71763;SDS011;59602;52.142;5.408;2022-12-07T03:24:35;4.05;;;0.30;;
71763;SDS011;59602;52.142;5.408;2022-12-07T03:27:07;4.72;;;0.20;;
71763;SDS011;59602;52.142;5.408;2022-12-07T03:29:42;1.63;;;0.10;;
71763;SDS011;59602;52.142;5.408;2022-12-07T03:34:49;3.22;;;0.15;;
71763;SDS011;59602;52.142;5.408;2022-12-07T03:37:29;4.85;;;0.22;;
71763;SDS011;59602;52.142;5.408;2022-12-07T03:40:04;2.50;;;0.30;;
71763;SDS011;59602;52.142;5.408;2022-12-07T03:42:42;4.47;;;0.20;;
71763;SDS011;59602;52.142;5.408;2022-12-07T03:45:12;2.13;;;0.20;;
71763;SDS011;59602;52.142;5.408;2022-12-07T03:50:37;5.78;;;0.32;;
71763;SDS011;59602;52.142;5.408;2022-12-07T03:53:17;4.00;;;0.20;;
71763;SDS011;59602;52.142;5.408;2022-12-07T03:55:46;8.57;;;0.30;;
71763;SDS011;59602;52.142;5.408;2022-12-07T03:58:17;4.23;;;0.30;;
71763;SDS011;59602;52.142;5.408;2022-12-07T04:00:47;4.40;;;0.30;;
71763;SDS011;59602;52.142;5.408;2022-12-07T04:03:16;3.30;;;0.20;;
71763;SDS011;59602;52.142;5.408;2022-12-07T04:05:43;2.75;;;0.40;;
71763;SDS011;59602;52.142;5.408;2022-12-07T04:08:14;3.78;;;0.55;;
71763;SDS011;59602;52.142;5.408;2022-12-07T04:10:42;5.07;;;0.20;;
71763;SDS011;59602;52.142;5.408;2022-12-07T04:13:13;3.42;;;0.20;;
71763;SDS011;59602;52.142;5.408;2022-12-07T04:15:39;4.28;;;0.35;;
71763;SDS011;59602;52.142;5.408;2022-12-07T04:18:08;2.38;;;0.17;;
71763;SDS011;59602;52.142;5.408;2022-12-07T04:20:36;4.40;;;0.20;;
71763;SDS011;59602;52.142;5.408;2022-12-07T04:23:09;3.40;;;0.30;;
71763;SDS011;59602;52.142;5.408;2022-12-07T04:25:37;4.20;;;0.17;;
71763;SDS011;59602;52.142;5.408;2022-12-07T04:28:18;3.08;;;0.35;;
71763;SDS011;59602;52.142;5.408;2022-12-07T04:30:45;1.05;;;0.30;;
71763;SDS011;59602;52.142;5.408;2022-12-07T04:33:15;0.90;;;0.10;;
71763;SDS011;59602;52.142;5.408;2022-12-07T04:35:42;2.07;;;0.10;;
71763;SDS011;59602;52.142;5.408;2022-12-07T04:38:12;4.88;;;0.20;;
71763;SDS011;59602;52.142;5.408;2022-12-07T04:40:44;4.38;;;0.22;;
71763;SDS011;59602;52.142;5.408;2022-12-07T04:43:12;3.40;;;0.32;;
71763;SDS011;59602;52.142;5.408;2022-12-07T04:45:47;2.47;;;0.20;;
71763;SDS011;59602;52.142;5.408;2022-12-07T04:48:21;2.00;;;0.20;;
71763;SDS011;59602;52.142;5.408;2022-12-07T04:51:08;3.20;;;0.30;;
71763;SDS011;59602;52.142;5.408;2022-12-07T04:53:42;3.47;;;0.15;;
71763;SDS011;59602;52.142;5.408;2022-12-07T04:56:09;3.67;;;0.35;;
71763;SDS011;59602;52.142;5.408;2022-12-07T04:58:37;3.58;;;0.17;;
71763;SDS011;59602;52.142;5.408;2022-12-07T05:01:05;3.50;;;0.30;;
71763;SDS011;59602;52.142;5.408;2022-12-07T05:03:33;3.03;;;0.25;;
71763;SDS011;59602;52.142;5.408;2022-12-07T05:06:01;2.95;;;0.40;;
71763;SDS011;59602;52.142;5.408;2022-12-07T05:08:38;2.15;;;0.10;;
71763;SDS011;59602;52.142;5.408;2022-12-07T05:11:07;3.00;;;0.10;;
71763;SDS011;59602;52.142;5.408;2022-12-07T05:13:41;3.37;;;0.10;;
71763;SDS011;59602;52.142;5.408;2022-12-07T05:16:08;3.40;;;0.20;;
71763;SDS011;59602;52.142;5.408;2022-12-07T05:18:43;3.13;;;0.10;;
71763;SDS011;59602;52.142;5.408;2022-12-07T05:21:23;3.80;;;0.10;;
71763;SDS011;59602;52.142;5.408;2022-12-07T05:23:56;3.00;;;0.20;;
71763;SDS011;59602;52.142;5.408;2022-12-07T05:26:23;4.30;;;0.50;;
71763;SDS011;59602;52.142;5.408;2022-12-07T05:28:52;6.10;;;0.20;;
71763;SDS011;59602;52.142;5.408;2022-12-07T05:31:20;1.33;;;0.10;;
71763;SDS011;59602;52.142;5.408;2022-12-07T05:33:56;3.65;;;0.20;;
71763;SDS011;59602;52.142;5.408;2022-12-07T05:36:23;2.88;;;0.20;;
71763;SDS011;59602;52.142;5.408;2022-12-07T05:38:50;1.17;;;0.10;;
71763;SDS011;59602;52.142;5.408;2022-12-07T05:41:18;1.42;;;0.10;;
71763;SDS011;59602;52.142;5.408;2022-12-07T05:44:06;2.88;;;0.10;;
71763;SDS011;59602;52.142;5.408;2022-12-07T05:46:36;3.53;;;0.20;;
71763;SDS011;59602;52.142;5.408;2022-12-07T05:49:11;3.97;;;0.10;;
71763;SDS011;59602;52.142;5.408;2022-12-07T05:51:42;3.77;;;0.10;;
71763;SDS011;59602;52.142;5.408;2022-12-07T05:54:10;2.08;;;0.80;;
71763;SDS011;59602;52.142;5.408;2022-12-07T05:56:39;5.53;;;0.10;;
71763;SDS011;59602;52.142;5.408;2022-12-07T05:59:09;3.53;;;0.22;;
71763;SDS011;59602;52.142;5.408;2022-12-07T06:02:25;2.80;;;0.10;;
71763;SDS011;59602;52.142;5.408;2022-12-07T06:05:39;3.60;;;0.10;;
71763;SDS011;59602;52.142;5.408;2022-12-07T06:08:45;2.05;;;0.05;;
71763;SDS011;59602;52.142;5.408;2022-12-07T06:11:44;2.13;;;0.13;;
71763;SDS011;59602;52.142;5.408;2022-12-07T06:14:31;2.83;;;0.20;;
71763;SDS011;59602;52.142;5.408;2022-12-07T06:17:08;3.13;;;0.10;;
71763;SDS011;59602;52.142;5.408;2022-12-07T06:23:22;2.53;;;0.10;;
71763;SDS011;59602;52.142;5.408;2022-12-07T06:25:54;1.92;;;0.10;;
71763;SDS011;59602;52.142;5.408;2022-12-07T06:28:24;5.75;;;0.17;;
71763;SDS011;59602;52.142;5.408;2022-12-07T06:30:58;1.67;;;0.10;;
71763;SDS011;59602;52.142;5.408;2022-12-07T06:33:35;3.03;;;0.27;;
71763;SDS011;59602;52.142;5.408;2022-12-07T06:36:02;5.15;;;0.25;;
71763;SDS011;59602;52.142;5.408;2022-12-07T06:38:28;2.75;;;0.10;;
71763;SDS011;59602;52.142;5.408;2022-12-07T06:40:55;2.00;;;0.20;;
71763;SDS011;59602;52.142;5.408;2022-12-07T06:43:24;4.65;;;0.10;;
71763;SDS011;59602;52.142;5.408;2022-12-07T06:45:50;2.57;;;0.40;;
71763;SDS011;59602;52.142;5.408;2022-12-07T06:48:19;3.35;;;0.20;;
71763;SDS011;59602;52.142;5.408;2022-12-07T06:50:47;2.65;;;0.10;;
71763;SDS011;59602;52.142;5.408;2022-12-07T06:53:20;4.15;;;0.20;;
71763;SDS011;59602;52.142;5.408;2022-12-07T06:55:46;5.75;;;0.20;;
71763;SDS011;59602;52.142;5.408;2022-12-07T06:58:20;2.20;;;0.40;;
71763;SDS011;59602;52.142;5.408;2022-12-07T07:00:47;2.63;;;0.30;;
71763;SDS011;59602;52.142;5.408;2022-12-07T07:03:16;2.83;;;0.30;;
71763;SDS011;59602;52.142;5.408;2022-12-07T07:05:43;4.03;;;0.32;;
71763;SDS011;59602;52.142;5.408;2022-12-07T07:08:11;7.20;;;0.52;;
71763;SDS011;59602;52.142;5.408;2022-12-07T07:10:48;1.70;;;0.10;;
71763;SDS011;59602;52.142;5.408;2022-12-07T07:13:14;3.75;;;0.10;;
71763;SDS011;59602;52.142;5.408;2022-12-07T07:15:41;7.35;;;0.40;;
71763;SDS011;59602;52.142;5.408;2022-12-07T07:18:08;3.85;;;0.20;;
71763;SDS011;59602;52.142;5.408;2022-12-07T07:20:35;5.35;;;0.40;;
71763;SDS011;59602;52.142;5.408;2022-12-07T07:23:02;5.70;;;0.33;;
71763;SDS011;59602;52.142;5.408;2022-12-07T07:25:30;3.45;;;0.50;;
71763;SDS011;59602;52.142;5.408;2022-12-07T07:27:57;3.55;;;0.30;;
71763;SDS011;59602;52.142;5.408;2022-12-07T07:30:23;3.47;;;0.32;;
71763;SDS011;59602;52.142;5.408;2022-12-07T07:32:50;3.42;;;0.60;;
71763;SDS011;59602;52.142;5.408;2022-12-07T07:35:17;4.30;;;0.13;;
71763;SDS011;59602;52.142;5.408;2022-12-07T07:37:44;1.92;;;0.20;;
71763;SDS011;59602;52.142;5.408;2022-12-07T07:40:10;3.10;;;0.20;;
71763;SDS011;59602;52.142;5.408;2022-12-07T07:42:37;2.95;;;0.20;;
71763;SDS011;59602;52.142;5.408;2022-12-07T07:45:03;2.58;;;0.30;;
71763;SDS011;59602;52.142;5.408;2022-12-07T07:47:30;2.93;;;0.30;;
71763;SDS011;59602;52.142;5.408;2022-12-07T07:49:57;4.68;;;0.30;;
71763;SDS011;59602;52.142;5.408;2022-12-07T07:52:24;4.55;;;0.30;;
71763;SDS011;59602;52.142;5.408;2022-12-07T07:54:50;3.60;;;0.40;;
71763;SDS011;59602;52.142;5.408;2022-12-07T07:57:17;4.03;;;0.30;;
71763;SDS011;59602;52.142;5.408;2022-12-07T07:59:44;3.47;;;0.27;;
71763;SDS011;59602;52.142;5.408;2022-12-07T08:02:13;3.03;;;0.20;;
71763;SDS011;59602;52.142;5.408;2022-12-07T08:04:41;3.90;;;0.20;;
71763;SDS011;59602;52.142;5.408;2022-12-07T08:07:08;4.50;;;0.20;;
71763;SDS011;59602;52.142;5.408;2022-12-07T08:09:36;3.13;;;0.20;;
71763;SDS011;59602;52.142;5.408;2022-12-07T08:12:02;2.47;;;0.20;;
71763;SDS011;59602;52.142;5.408;2022-12-07T08:14:29;3.90;;;0.30;;
71763;SDS011;59602;52.142;5.408;2022-12-07T08:16:56;2.35;;;0.30;;
71763;SDS011;59602;52.142;5.408;2022-12-07T08:19:23;3.83;;;0.35;;
71763;SDS011;59602;52.142;5.408;2022-12-07T08:21:50;5.32;;;0.28;;
71763;SDS011;59602;52.142;5.408;2022-12-07T08:24:16;3.10;;;0.30;;
71763;SDS011;59602;52.142;5.408;2022-12-07T08:26:43;2.90;;;0.40;;
71763;SDS011;59602;52.142;5.408;2022-12-07T08:29:10;4.55;;;0.40;;
71763;SDS011;59602;52.142;5.408;2022-12-07T08:31:37;2.80;;;0.20;;
71763;SDS011;59602;52.142;5.408;2022-12-07T08:34:04;3.40;;;0.20;;
71763;SDS011;59602;52.142;5.408;2022-12-07T08:36:30;4.07;;;1.07;;
71763;SDS011;59602;52.142;5.408;2022-12-07T08:38:57;3.63;;;0.20;;
71763;SDS011;59602;52.142;5.408;2022-12-07T08:50:10;2.10;;;0.20;;
71763;SDS011;59602;52.142;5.408;2022-12-07T09:16:42;2.88;;;0.15;;
71763;SDS011;59602;52.142;5.408;2022-12-07T09:19:08;3.37;;;0.30;;
71763;SDS011;59602;52.142;5.408;2022-12-07T09:21:35;2.83;;;0.40;;
71763;SDS011;59602;52.142;5.408;2022-12-07T09:24:01;2.38;;;0.30;;
71763;SDS011;59602;52.142;5.408;2022-12-07T09:26:28;2.72;;;0.10;;
71763;SDS011;59602;52.142;5.408;2022-12-07T09:28:55;3.63;;;0.20;;
71763;SDS011;59602;52.142;5.408;2022-12-07T09:31:21;3.10;;;0.30;;
71763;SDS011;59602;52.142;5.408;2022-12-07T09:33:55;3.45;;;0.30;;
71763;SDS011;59602;52.142;5.408;2022-12-07T09:36:30;4.32;;;0.20;;
71763;SDS011;59602;52.142;5.408;2022-12-07T09:38:59;3.67;;;0.20;;
71763;SDS011;59602;52.142;5.408;2022-12-07T09:41:27;2.90;;;0.20;;
71763;SDS011;59602;52.142;5.408;2022-12-07T09:44:02;3.33;;;0.17;;
71763;SDS011;59602;52.142;5.408;2022-12-07T09:46:34;3.70;;;0.32;;
71763;SDS011;59602;52.142;5.408;2022-12-07T09:49:05;2.53;;;0.20;;
71763;SDS011;59602;52.142;5.408;2022-12-07T09:51:36;1.40;;;0.10;;
71763;SDS011;59602;52.142;5.408;2022-12-07T09:54:02;2.25;;;0.10;;
71763;SDS011;59602;52.142;5.408;2022-12-07T09:56:29;2.57;;;0.20;;
71763;SDS011;59602;52.142;5.408;2022-12-07T09:58:59;0.68;;;0.13;;
71763;SDS011;59602;52.142;5.408;2022-12-07T10:01:28;4.13;;;0.20;;
71763;SDS011;59602;52.142;5.408;2022-12-07T10:04:09;2.30;;;0.10;;
71763;SDS011;59602;52.142;5.408;2022-12-07T10:06:51;5.32;;;0.20;;
71763;SDS011;59602;52.142;5.408;2022-12-07T10:09:19;5.40;;;0.20;;
71763;SDS011;59602;52.142;5.408;2022-12-07T10:12:02;2.47;;;0.17;;
71763;SDS011;59602;52.142;5.408;2022-12-07T10:14:29;3.75;;;0.30;;
71763;SDS011;59602;52.142;5.408;2022-12-07T10:17:26;3.05;;;0.17;;
71763;SDS011;59602;52.142;5.408;2022-12-07T10:23:01;7.40;;;0.30;;
71763;SDS011;59602;52.142;5.408;2022-12-07T10:25:30;4.43;;;0.30;;
71763;SDS011;59602;52.142;5.408;2022-12-07T10:28:00;3.72;;;0.40;;
71763;SDS011;59602;52.142;5.408;2022-12-07T10:31:00;6.50;;;0.57;;
71763;SDS011;59602;52.142;5.408;2022-12-07T10:35:57;4.57;;;0.50;;
71763;SDS011;59602;52.142;5.408;2022-12-07T10:38:26;4.35;;;0.50;;
71763;SDS011;59602;52.142;5.408;2022-12-07T10:41:05;2.72;;;0.47;;
71763;SDS011;59602;52.142;5.408;2022-12-07T10:43:33;4.60;;;0.40;;
71763;SDS011;59602;52.142;5.408;2022-12-07T10:48:38;4.87;;;0.17;;
71763;SDS011;59602;52.142;5.408;2022-12-07T10:51:33;3.80;;;0.20;;
71763;SDS011;59602;52.142;5.408;2022-12-07T10:56:58;3.28;;;0.20;;
71763;SDS011;59602;52.142;5.408;2022-12-07T10:59:36;5.15;;;0.30;;
71763;SDS011;59602;52.142;5.408;2022-12-07T11:02:20;6.07;;;0.40;;
71763;SDS011;59602;52.142;5.408;2022-12-07T11:04:55;3.50;;;0.30;;
71763;SDS011;59602;52.142;5.408;2022-12-07T11:10:13;3.25;;;0.50;;
71763;SDS011;59602;52.142;5.408;2022-12-07T11:15:36;3.07;;;0.50;;
71763;SDS011;59602;52.142;5.408;2022-12-07T11:20:55;3.38;;;0.20;;
71763;SDS011;59602;52.142;5.408;2022-12-07T11:29:04;4.73;;;0.10;;
71763;SDS011;59602;52.142;5.408;2022-12-07T11:32:02;8.63;;;0.45;;
71763;SDS011;59602;52.142;5.408;2022-12-07T11:34:47;3.83;;;0.30;;
71763;SDS011;59602;52.142;5.408;2022-12-07T11:37:25;6.28;;;0.25;;
71763;SDS011;59602;52.142;5.408;2022-12-07T11:42:46;6.33;;;0.30;;
71763;SDS011;59602;52.142;5.408;2022-12-07T11:45:27;3.92;;;0.20;;
71763;SDS011;59602;52.142;5.408;2022-12-07T11:48:02;2.45;;;0.20;;
71763;SDS011;59602;52.142;5.408;2022-12-07T11:50:40;2.90;;;0.30;;
71763;SDS011;59602;52.142;5.408;2022-12-07T11:53:10;2.53;;;0.28;;
71763;SDS011;59602;52.142;5.408;2022-12-07T12:36:25;3.58;;;0.10;;
71763;SDS011;59602;52.142;5.408;2022-12-07T12:39:12;4.43;;;0.20;;
71763;SDS011;59602;52.142;5.408;2022-12-07T12:46:45;3.90;;;0.10;;
71763;SDS011;59602;52.142;5.408;2022-12-07T12:51:42;3.78;;;0.20;;
71763;SDS011;59602;52.142;5.408;2022-12-07T12:54:12;1.48;;;0.10;;
71763;SDS011;59602;52.142;5.408;2022-12-07T12:56:51;4.93;;;0.20;;
71763;SDS011;59602;52.142;5.408;2022-12-07T12:59:40;2.57;;;0.20;;
71763;SDS011;59602;52.142;5.408;2022-12-07T13:04:50;2.15;;;0.35;;
71763;SDS011;59602;52.142;5.408;2022-12-07T13:15:38;2.53;;;0.00;;
71763;SDS011;59602;52.142;5.408;2022-12-07T13:20:50;2.42;;;0.00;;
71763;SDS011;59602;52.142;5.408;2022-12-07T13:23:27;2.60;;;0.10;;
71763;SDS011;59602;52.142;5.408;2022-12-07T13:26:01;3.40;;;0.10;;
71763;SDS011;59602;52.142;5.408;2022-12-07T13:28:45;1.00;;;0.00;;
71763;SDS011;59602;52.142;5.408;2022-12-07T13:31:18;1.00;;;0.00;;
71763;SDS011;59602;52.142;5.408;2022-12-07T13:33:46;1.27;;;0.10;;
71763;SDS011;59602;52.142;5.408;2022-12-07T13:36:21;2.40;;;0.30;;
71763;SDS011;59602;52.142;5.408;2022-12-07T13:38:51;0.70;;;0.03;;
71763;SDS011;59602;52.142;5.408;2022-12-07T13:41:22;0.50;;;0.10;;
71763;SDS011;59602;52.142;5.408;2022-12-07T13:44:03;1.75;;;0.15;;
71763;SDS011;59602;52.142;5.408;2022-12-07T13:51:55;2.93;;;0.20;;
71763;SDS011;59602;52.142;5.408;2022-12-07T13:54:48;1.92;;;0.30;;
71763;SDS011;59602;52.142;5.408;2022-12-07T13:57:21;3.67;;;0.40;;
71763;SDS011;59602;52.142;5.408;2022-12-07T13:59:50;3.90;;;0.50;;
71763;SDS011;59602;52.142;5.408;2022-12-07T14:04:49;5.23;;;0.30;;
71763;SDS011;59602;52.142;5.408;2022-12-07T14:07:19;3.08;;;0.20;;
71763;SDS011;59602;52.142;5.408;2022-12-07T14:09:56;3.58;;;0.30;;
71763;SDS011;59602;52.142;5.408;2022-12-07T14:12:26;3.25;;;0.30;;
71763;SDS011;59602;52.142;5.408;2022-12-07T14:14:54;3.70;;;0.20;;
71763;SDS011;59602;52.142;5.408;2022-12-07T14:17:24;3.47;;;0.20;;
71763;SDS011;59602;52.142;5.408;2022-12-07T14:19:53;1.25;;;0.20;;
71763;SDS011;59602;52.142;5.408;2022-12-07T14:22:27;5.03;;;0.40;;
71763;SDS011;59602;52.142;5.408;2022-12-07T14:24:58;2.78;;;0.30;;
71763;SDS011;59602;52.142;5.408;2022-12-07T14:27:35;3.35;;;0.50;;
71763;SDS011;59602;52.142;5.408;2022-12-07T14:30:03;2.23;;;0.13;;
71763;SDS011;59602;52.142;5.408;2022-12-07T14:32:31;3.90;;;0.30;;
71763;SDS011;59602;52.142;5.408;2022-12-07T14:35:03;3.25;;;0.20;;
71763;SDS011;59602;52.142;5.408;2022-12-07T14:37:36;2.28;;;0.30;;
71763;SDS011;59602;52.142;5.408;2022-12-07T14:40:04;2.15;;;0.30;;
71763;SDS011;59602;52.142;5.408;2022-12-07T14:42:32;2.50;;;0.30;;
71763;SDS011;59602;52.142;5.408;2022-12-07T14:45:00;4.28;;;0.55;;
71763;SDS011;59602;52.142;5.408;2022-12-07T14:47:28;6.38;;;0.57;;
71763;SDS011;59602;52.142;5.408;2022-12-07T14:50:17;2.63;;;0.20;;
71763;SDS011;59602;52.142;5.408;2022-12-07T14:52:46;6.72;;;0.45;;
71763;SDS011;59602;52.142;5.408;2022-12-07T14:55:36;2.53;;;0.20;;
71763;SDS011;59602;52.142;5.408;2022-12-07T14:58:03;3.22;;;0.50;;
71763;SDS011;59602;52.142;5.408;2022-12-07T15:00:30;1.80;;;0.20;;
71763;SDS011;59602;52.142;5.408;2022-12-07T15:02:56;2.95;;;0.32;;
71763;SDS011;59602;52.142;5.408;2022-12-07T15:05:23;5.13;;;0.20;;
71763;SDS011;59602;52.142;5.408;2022-12-07T15:07:50;1.97;;;0.10;;
71763;SDS011;59602;52.142;5.408;2022-12-07T15:10:19;1.75;;;0.20;;
71763;SDS011;59602;52.142;5.408;2022-12-07T15:12:50;2.00;;;0.20;;
71763;SDS011;59602;52.142;5.408;2022-12-07T15:15:16;1.55;;;0.10;;
71763;SDS011;59602;52.142;5.408;2022-12-07T15:17:43;1.52;;;0.15;;
71763;SDS011;59602;52.142;5.408;2022-12-07T15:20:11;2.93;;;0.37;;
71763;SDS011;59602;52.142;5.408;2022-12-07T15:22:39;0.65;;;0.03;;
71763;SDS011;59602;52.142;5.408;2022-12-07T15:25:08;1.40;;;0.10;;
71763;SDS011;59602;52.142;5.408;2022-12-07T15:27:34;1.95;;;0.10;;
71763;SDS011;59602;52.142;5.408;2022-12-07T15:30:01;3.40;;;0.10;;
71763;SDS011;59602;52.142;5.408;2022-12-07T15:32:29;1.80;;;0.10;;
71763;SDS011;59602;52.142;5.408;2022-12-07T15:34:55;4.00;;;0.20;;
71763;SDS011;59602;52.142;5.408;2022-12-07T15:37:22;4.65;;;0.40;;
71763;SDS011;59602;52.142;5.408;2022-12-07T15:39:49;4.22;;;0.30;;
71763;SDS011;59602;52.142;5.408;2022-12-07T15:42:15;1.02;;;0.20;;
71763;SDS011;59602;52.142;5.408;2022-12-07T15:44:42;1.73;;;0.20;;
71763;SDS011;59602;52.142;5.408;2022-12-07T15:47:27;2.17;;;0.20;;
71763;SDS011;59602;52.142;5.408;2022-12-07T15:49:54;2.72;;;0.68;;
71763;SDS011;59602;52.142;5.408;2022-12-07T15:52:26;2.83;;;0.30;;
71763;SDS011;59602;52.142;5.408;2022-12-07T15:54:53;3.25;;;0.30;;
71763;SDS011;59602;52.142;5.408;2022-12-07T15:57:24;2.93;;;0.37;;
71763;SDS011;59602;52.142;5.408;2022-12-07T15:59:51;1.95;;;0.35;;
71763;SDS011;59602;52.142;5.408;2022-12-07T16:02:17;3.22;;;0.30;;
71763;SDS011;59602;52.142;5.408;2022-12-07T16:04:44;1.38;;;0.15;;
71763;SDS011;59602;52.142;5.408;2022-12-07T16:07:11;1.77;;;0.20;;
71763;SDS011;59602;52.142;5.408;2022-12-07T16:09:40;6.13;;;0.20;;
71763;SDS011;59602;52.142;5.408;2022-12-07T16:12:08;3.35;;;0.20;;
71763;SDS011;59602;52.142;5.408;2022-12-07T16:14:36;4.50;;;0.22;;
71763;SDS011;59602;52.142;5.408;2022-12-07T16:17:04;3.35;;;0.50;;
71763;SDS011;59602;52.142;5.408;2022-12-07T16:19:34;2.10;;;0.20;;
71763;SDS011;59602;52.142;5.408;2022-12-07T16:22:01;1.63;;;0.20;;
71763;SDS011;59602;52.142;5.408;2022-12-07T16:24:29;2.58;;;0.20;;
71763;SDS011;59602;52.142;5.408;2022-12-07T16:26:56;2.47;;;0.40;;
71763;SDS011;59602;52.142;5.408;2022-12-07T16:29:23;3.28;;;0.20;;
71763;SDS011;59602;52.142;5.408;2022-12-07T16:31:51;2.97;;;0.30;;
71763;SDS011;59602;52.142;5.408;2022-12-07T16:34:18;2.27;;;0.30;;
71763;SDS011;59602;52.142;5.408;2022-12-07T16:36:45;3.40;;;0.43;;
71763;SDS011;59602;52.142;5.408;2022-12-07T16:39:30;1.35;;;0.17;;
71763;SDS011;59602;52.142;5.408;2022-12-07T16:41:57;3.63;;;0.20;;
71763;SDS011;59602;52.142;5.408;2022-12-07T16:44:23;0.88;;;0.20;;
71763;SDS011;59602;52.142;5.408;2022-12-07T16:46:50;2.20;;;0.50;;
71763;SDS011;59602;52.142;5.408;2022-12-07T16:49:18;2.38;;;0.30;;
71763;SDS011;59602;52.142;5.408;2022-12-07T16:51:45;2.72;;;0.35;;
71763;SDS011;59602;52.142;5.408;2022-12-07T16:54:36;3.13;;;0.38;;
71763;SDS011;59602;52.142;5.408;2022-12-07T16:57:02;4.70;;;0.40;;
71763;SDS011;59602;52.142;5.408;2022-12-07T16:59:29;3.33;;;0.40;;
71763;SDS011;59602;52.142;5.408;2022-12-07T17:01:56;4.03;;;0.40;;
71763;SDS011;59602;52.142;5.408;2022-12-07T17:04:22;4.15;;;0.45;;
71763;SDS011;59602;52.142;5.408;2022-12-07T17:06:49;3.08;;;0.30;;
71763;SDS011;59602;52.142;5.408;2022-12-07T17:09:16;1.40;;;0.30;;
71763;SDS011;59602;52.142;5.408;2022-12-07T17:11:46;2.67;;;0.30;;
71763;SDS011;59602;52.142;5.408;2022-12-07T17:14:19;4.70;;;0.32;;
71763;SDS011;59602;52.142;5.408;2022-12-07T17:17:04;5.45;;;0.45;;
71763;SDS011;59602;52.142;5.408;2022-12-07T17:19:30;3.05;;;0.30;;
71763;SDS011;59602;52.142;5.408;2022-12-07T17:21:57;1.65;;;0.30;;
71763;SDS011;59602;52.142;5.408;2022-12-07T17:24:24;2.17;;;0.30;;
71763;SDS011;59602;52.142;5.408;2022-12-07T17:26:52;1.38;;;0.35;;
71763;SDS011;59602;52.142;5.408;2022-12-07T17:29:19;2.70;;;0.30;;
71763;SDS011;59602;52.142;5.408;2022-12-07T17:31:46;2.15;;;0.40;;
71763;SDS011;59602;52.142;5.408;2022-12-07T17:34:17;4.00;;;0.70;;
71763;SDS011;59602;52.142;5.408;2022-12-07T17:36:44;2.60;;;0.30;;
71763;SDS011;59602;52.142;5.408;2022-12-07T17:39:12;2.58;;;0.30;;
71763;SDS011;59602;52.142;5.408;2022-12-07T17:41:41;5.72;;;0.90;;
71763;SDS011;59602;52.142;5.408;2022-12-07T17:44:26;3.72;;;0.80;;
71763;SDS011;59602;52.142;5.408;2022-12-07T17:46:53;4.68;;;0.77;;